sensor_id;sensor_type;location;lat;lon;timestamp;P1;durP1;ratioP1;P2;durP2;ratioP2
14247;SDS011;7208;49.826;6.004;2022-10-16T00:01:26;11.70;;;10.70;;
14247;SDS011;7208;49.826;6.004;2022-10-16T00:03:54;11.47;;;10.47;;
14247;SDS011;7208;49.826;6.004;2022-10-16T00:06:21;11.93;;;10.80;;
14247;SDS011;7208;49.826;6.004;2022-10-16T00:08:47;12.57;;;10.87;;
14247;SDS011;7208;49.826;6.004;2022-10-16T00:11:15;12.90;;;11.17;;
14247;SDS011;7208;49.826;6.004;2022-10-16T00:13:42;12.40;;;10.73;;
14247;SDS011;7208;49.826;6.004;2022-10-16T00:16:10;12.67;;;10.83;;
14247;SDS011;7208;49.826;6.004;2022-10-16T00:18:37;12.93;;;10.37;;
14247;SDS011;7208;49.826;6.004;2022-10-16T00:21:14;17.37;;;10.80;;
14247;SDS011;7208;49.826;6.004;2022-10-16T00:23:45;9.80;;;9.00;;
14247;SDS011;7208;49.826;6.004;2022-10-16T00:26:14;9.73;;;8.80;;
14247;SDS011;7208;49.826;6.004;2022-10-16T00:28:41;13.67;;;9.70;;
14247;SDS011;7208;49.826;6.004;2022-10-16T00:31:07;11.37;;;8.93;;
14247;SDS011;7208;49.826;6.004;2022-10-16T00:33:36;10.57;;;9.57;;
14247;SDS011;7208;49.826;6.004;2022-10-16T00:36:03;9.93;;;9.03;;
14247;SDS011;7208;49.826;6.004;2022-10-16T00:38:30;10.70;;;9.60;;
14247;SDS011;7208;49.826;6.004;2022-10-16T00:40:56;10.90;;;9.07;;
14247;SDS011;7208;49.826;6.004;2022-10-16T00:43:36;10.00;;;9.10;;
14247;SDS011;7208;49.826;6.004;2022-10-16T00:46:19;8.97;;;8.10;;
14247;SDS011;7208;49.826;6.004;2022-10-16T00:49:06;8.83;;;8.00;;
14247;SDS011;7208;49.826;6.004;2022-10-16T00:51:39;8.43;;;7.10;;
14247;SDS011;7208;49.826;6.004;2022-10-16T00:57:07;9.00;;;6.23;;
14247;SDS011;7208;49.826;6.004;2022-10-16T00:59:40;6.90;;;5.90;;
14247;SDS011;7208;49.826;6.004;2022-10-16T01:02:09;6.90;;;6.20;;
14247;SDS011;7208;49.826;6.004;2022-10-16T01:04:48;8.57;;;6.60;;
14247;SDS011;7208;49.826;6.004;2022-10-16T01:12:51;6.53;;;5.93;;
14247;SDS011;7208;49.826;6.004;2022-10-16T01:18:16;6.70;;;5.43;;
14247;SDS011;7208;49.826;6.004;2022-10-16T01:20:50;7.23;;;6.33;;
14247;SDS011;7208;49.826;6.004;2022-10-16T01:28:41;7.80;;;6.73;;
14247;SDS011;7208;49.826;6.004;2022-10-16T01:31:29;7.17;;;6.57;;
14247;SDS011;7208;49.826;6.004;2022-10-16T01:34:03;7.33;;;6.50;;
14247;SDS011;7208;49.826;6.004;2022-10-16T01:36:38;7.50;;;6.37;;
14247;SDS011;7208;49.826;6.004;2022-10-16T01:39:09;7.13;;;6.43;;
14247;SDS011;7208;49.826;6.004;2022-10-16T01:41:41;7.67;;;6.90;;
14247;SDS011;7208;49.826;6.004;2022-10-16T01:44:14;7.67;;;6.70;;
14247;SDS011;7208;49.826;6.004;2022-10-16T01:46:48;7.03;;;6.20;;
14247;SDS011;7208;49.826;6.004;2022-10-16T01:49:16;7.03;;;6.40;;
14247;SDS011;7208;49.826;6.004;2022-10-16T01:51:44;7.07;;;6.57;;
14247;SDS011;7208;49.826;6.004;2022-10-16T01:54:12;7.57;;;6.87;;
14247;SDS011;7208;49.826;6.004;2022-10-16T01:56:41;8.33;;;7.00;;
14247;SDS011;7208;49.826;6.004;2022-10-16T01:59:11;7.80;;;6.63;;
14247;SDS011;7208;49.826;6.004;2022-10-16T02:01:42;7.83;;;7.13;;
14247;SDS011;7208;49.826;6.004;2022-10-16T02:06:45;7.00;;;6.40;;
14247;SDS011;7208;49.826;6.004;2022-10-16T02:09:11;6.67;;;6.07;;
14247;SDS011;7208;49.826;6.004;2022-10-16T02:11:37;6.50;;;6.00;;
14247;SDS011;7208;49.826;6.004;2022-10-16T02:14:04;6.63;;;5.73;;
14247;SDS011;7208;49.826;6.004;2022-10-16T02:16:42;5.97;;;5.07;;
14247;SDS011;7208;49.826;6.004;2022-10-16T02:19:09;6.60;;;4.77;;
14247;SDS011;7208;49.826;6.004;2022-10-16T02:21:44;4.80;;;4.30;;
14247;SDS011;7208;49.826;6.004;2022-10-16T02:24:28;4.40;;;3.83;;
14247;SDS011;7208;49.826;6.004;2022-10-16T02:30:01;3.83;;;3.53;;
14247;SDS011;7208;49.826;6.004;2022-10-16T02:32:38;4.47;;;3.93;;
14247;SDS011;7208;49.826;6.004;2022-10-16T02:35:07;3.60;;;3.30;;
14247;SDS011;7208;49.826;6.004;2022-10-16T02:37:34;3.53;;;3.23;;
14247;SDS011;7208;49.826;6.004;2022-10-16T02:40:00;4.33;;;3.20;;
14247;SDS011;7208;49.826;6.004;2022-10-16T02:42:29;3.60;;;3.30;;
14247;SDS011;7208;49.826;6.004;2022-10-16T02:44:58;5.20;;;3.67;;
14247;SDS011;7208;49.826;6.004;2022-10-16T02:47:24;3.67;;;3.37;;
14247;SDS011;7208;49.826;6.004;2022-10-16T02:49:49;3.47;;;3.17;;
14247;SDS011;7208;49.826;6.004;2022-10-16T02:52:15;5.97;;;3.00;;
14247;SDS011;7208;49.826;6.004;2022-10-16T02:54:41;4.13;;;2.87;;
14247;SDS011;7208;49.826;6.004;2022-10-16T02:57:06;2.70;;;2.13;;
14247;SDS011;7208;49.826;6.004;2022-10-16T02:59:32;2.20;;;2.10;;
14247;SDS011;7208;49.826;6.004;2022-10-16T03:01:57;2.70;;;2.50;;
14247;SDS011;7208;49.826;6.004;2022-10-16T03:04:23;2.10;;;1.90;;
14247;SDS011;7208;49.826;6.004;2022-10-16T03:06:49;3.53;;;2.13;;
14247;SDS011;7208;49.826;6.004;2022-10-16T03:09:14;2.20;;;2.03;;
14247;SDS011;7208;49.826;6.004;2022-10-16T03:11:40;2.63;;;2.17;;
14247;SDS011;7208;49.826;6.004;2022-10-16T03:14:06;3.47;;;2.27;;
14247;SDS011;7208;49.826;6.004;2022-10-16T03:16:32;3.93;;;2.50;;
14247;SDS011;7208;49.826;6.004;2022-10-16T03:18:57;2.63;;;2.43;;
14247;SDS011;7208;49.826;6.004;2022-10-16T03:21:23;2.40;;;2.13;;
14247;SDS011;7208;49.826;6.004;2022-10-16T03:23:48;2.80;;;2.43;;
14247;SDS011;7208;49.826;6.004;2022-10-16T03:26:14;2.70;;;2.20;;
14247;SDS011;7208;49.826;6.004;2022-10-16T03:28:40;6.53;;;2.50;;
14247;SDS011;7208;49.826;6.004;2022-10-16T03:31:05;2.70;;;2.50;;
14247;SDS011;7208;49.826;6.004;2022-10-16T03:33:31;2.30;;;2.10;;
14247;SDS011;7208;49.826;6.004;2022-10-16T03:35:57;2.30;;;2.10;;
14247;SDS011;7208;49.826;6.004;2022-10-16T03:38:22;3.17;;;2.07;;
14247;SDS011;7208;49.826;6.004;2022-10-16T03:40:48;2.40;;;2.20;;
14247;SDS011;7208;49.826;6.004;2022-10-16T03:43:14;2.30;;;2.20;;
14247;SDS011;7208;49.826;6.004;2022-10-16T03:45:39;4.03;;;2.20;;
14247;SDS011;7208;49.826;6.004;2022-10-16T03:48:05;4.30;;;2.20;;
14247;SDS011;7208;49.826;6.004;2022-10-16T03:50:31;2.67;;;2.43;;
14247;SDS011;7208;49.826;6.004;2022-10-16T03:52:56;2.23;;;2.00;;
14247;SDS011;7208;49.826;6.004;2022-10-16T03:55:22;4.27;;;1.90;;
14247;SDS011;7208;49.826;6.004;2022-10-16T03:57:47;3.10;;;1.97;;
14247;SDS011;7208;49.826;6.004;2022-10-16T04:00:13;2.77;;;2.10;;
14247;SDS011;7208;49.826;6.004;2022-10-16T04:02:39;2.20;;;2.00;;
14247;SDS011;7208;49.826;6.004;2022-10-16T04:05:05;2.07;;;1.93;;
14247;SDS011;7208;49.826;6.004;2022-10-16T04:07:32;3.97;;;1.83;;
14247;SDS011;7208;49.826;6.004;2022-10-16T04:09:57;3.13;;;2.10;;
14247;SDS011;7208;49.826;6.004;2022-10-16T04:12:24;2.30;;;1.90;;
14247;SDS011;7208;49.826;6.004;2022-10-16T04:14:50;1.97;;;1.80;;
14247;SDS011;7208;49.826;6.004;2022-10-16T04:17:16;2.33;;;1.70;;
14247;SDS011;7208;49.826;6.004;2022-10-16T04:19:41;3.03;;;1.90;;
14247;SDS011;7208;49.826;6.004;2022-10-16T04:22:07;3.57;;;1.70;;
14247;SDS011;7208;49.826;6.004;2022-10-16T04:24:33;2.63;;;1.60;;
14247;SDS011;7208;49.826;6.004;2022-10-16T04:26:58;2.67;;;1.73;;
14247;SDS011;7208;49.826;6.004;2022-10-16T04:29:24;1.97;;;1.77;;
14247;SDS011;7208;49.826;6.004;2022-10-16T04:31:50;1.93;;;1.77;;
14247;SDS011;7208;49.826;6.004;2022-10-16T04:34:15;2.23;;;2.03;;
14247;SDS011;7208;49.826;6.004;2022-10-16T04:36:41;5.77;;;2.13;;
14247;SDS011;7208;49.826;6.004;2022-10-16T04:39:06;4.87;;;2.23;;
14247;SDS011;7208;49.826;6.004;2022-10-16T04:41:32;2.47;;;2.27;;
14247;SDS011;7208;49.826;6.004;2022-10-16T04:43:58;3.07;;;2.23;;
14247;SDS011;7208;49.826;6.004;2022-10-16T04:46:23;3.50;;;2.13;;
14247;SDS011;7208;49.826;6.004;2022-10-16T04:48:49;3.07;;;2.17;;
14247;SDS011;7208;49.826;6.004;2022-10-16T04:51:15;3.30;;;2.30;;
14247;SDS011;7208;49.826;6.004;2022-10-16T04:53:40;2.10;;;1.80;;
14247;SDS011;7208;49.826;6.004;2022-10-16T04:56:06;4.40;;;2.27;;
14247;SDS011;7208;49.826;6.004;2022-10-16T04:58:31;2.83;;;2.27;;
14247;SDS011;7208;49.826;6.004;2022-10-16T05:00:58;2.50;;;2.30;;
14247;SDS011;7208;49.826;6.004;2022-10-16T05:03:23;4.17;;;2.57;;
14247;SDS011;7208;49.826;6.004;2022-10-16T05:05:49;6.30;;;2.33;;
14247;SDS011;7208;49.826;6.004;2022-10-16T05:08:15;4.50;;;2.60;;
14247;SDS011;7208;49.826;6.004;2022-10-16T05:10:42;2.23;;;2.10;;
14247;SDS011;7208;49.826;6.004;2022-10-16T05:13:08;2.30;;;2.10;;
14247;SDS011;7208;49.826;6.004;2022-10-16T05:15:35;3.13;;;2.50;;
14247;SDS011;7208;49.826;6.004;2022-10-16T05:18:00;3.40;;;2.37;;
14247;SDS011;7208;49.826;6.004;2022-10-16T05:20:26;3.57;;;2.17;;
14247;SDS011;7208;49.826;6.004;2022-10-16T05:22:52;3.30;;;2.47;;
14247;SDS011;7208;49.826;6.004;2022-10-16T05:25:17;2.60;;;2.40;;
14247;SDS011;7208;49.826;6.004;2022-10-16T05:27:43;3.90;;;2.70;;
14247;SDS011;7208;49.826;6.004;2022-10-16T05:30:12;2.43;;;2.23;;
14247;SDS011;7208;49.826;6.004;2022-10-16T05:32:37;3.97;;;2.57;;
14247;SDS011;7208;49.826;6.004;2022-10-16T05:35:03;4.97;;;2.90;;
14247;SDS011;7208;49.826;6.004;2022-10-16T05:37:29;2.90;;;2.53;;
14247;SDS011;7208;49.826;6.004;2022-10-16T05:39:55;3.97;;;2.80;;
14247;SDS011;7208;49.826;6.004;2022-10-16T05:42:20;3.50;;;2.70;;
14247;SDS011;7208;49.826;6.004;2022-10-16T05:44:46;3.40;;;3.10;;
14247;SDS011;7208;49.826;6.004;2022-10-16T05:47:14;7.73;;;3.30;;
14247;SDS011;7208;49.826;6.004;2022-10-16T05:49:40;3.27;;;3.00;;
14247;SDS011;7208;49.826;6.004;2022-10-16T05:52:06;3.30;;;3.00;;
14247;SDS011;7208;49.826;6.004;2022-10-16T05:54:31;3.93;;;3.63;;
14247;SDS011;7208;49.826;6.004;2022-10-16T05:56:57;5.07;;;3.93;;
14247;SDS011;7208;49.826;6.004;2022-10-16T05:59:22;6.07;;;4.53;;
14247;SDS011;7208;49.826;6.004;2022-10-16T06:01:48;4.87;;;4.40;;
14247;SDS011;7208;49.826;6.004;2022-10-16T06:04:14;4.97;;;4.40;;
14247;SDS011;7208;49.826;6.004;2022-10-16T06:06:39;5.20;;;4.80;;
14247;SDS011;7208;49.826;6.004;2022-10-16T06:09:05;5.10;;;4.70;;
14247;SDS011;7208;49.826;6.004;2022-10-16T06:11:31;5.83;;;5.33;;
14247;SDS011;7208;49.826;6.004;2022-10-16T06:13:58;5.37;;;4.93;;
14247;SDS011;7208;49.826;6.004;2022-10-16T06:16:28;5.77;;;5.27;;
14247;SDS011;7208;49.826;6.004;2022-10-16T06:18:54;6.00;;;5.50;;
14247;SDS011;7208;49.826;6.004;2022-10-16T06:21:25;5.10;;;4.60;;
14247;SDS011;7208;49.826;6.004;2022-10-16T06:23:51;5.10;;;4.67;;
14247;SDS011;7208;49.826;6.004;2022-10-16T06:26:19;4.80;;;4.40;;
14247;SDS011;7208;49.826;6.004;2022-10-16T06:28:47;4.70;;;4.30;;
14247;SDS011;7208;49.826;6.004;2022-10-16T06:31:14;7.47;;;5.47;;
14247;SDS011;7208;49.826;6.004;2022-10-16T06:33:41;6.20;;;4.40;;
14247;SDS011;7208;49.826;6.004;2022-10-16T06:36:08;5.60;;;4.23;;
14247;SDS011;7208;49.826;6.004;2022-10-16T06:38:38;6.70;;;4.73;;
14247;SDS011;7208;49.826;6.004;2022-10-16T06:41:04;4.50;;;4.20;;
14247;SDS011;7208;49.826;6.004;2022-10-16T06:43:31;4.80;;;4.33;;
14247;SDS011;7208;49.826;6.004;2022-10-16T06:45:57;4.23;;;3.77;;
14247;SDS011;7208;49.826;6.004;2022-10-16T06:48:24;4.37;;;3.93;;
14247;SDS011;7208;49.826;6.004;2022-10-16T06:53:29;4.43;;;4.13;;
14247;SDS011;7208;49.826;6.004;2022-10-16T06:55:56;4.67;;;4.37;;
14247;SDS011;7208;49.826;6.004;2022-10-16T06:58:22;5.97;;;5.47;;
14247;SDS011;7208;49.826;6.004;2022-10-16T07:00:47;5.37;;;4.70;;
14247;SDS011;7208;49.826;6.004;2022-10-16T07:03:14;5.13;;;4.73;;
14247;SDS011;7208;49.826;6.004;2022-10-16T07:05:40;4.43;;;4.13;;
14247;SDS011;7208;49.826;6.004;2022-10-16T07:08:07;4.40;;;3.77;;
14247;SDS011;7208;49.826;6.004;2022-10-16T07:10:33;4.70;;;4.30;;
14247;SDS011;7208;49.826;6.004;2022-10-16T07:12:58;5.20;;;4.70;;
14247;SDS011;7208;49.826;6.004;2022-10-16T07:15:24;5.67;;;5.27;;
14247;SDS011;7208;49.826;6.004;2022-10-16T07:17:51;6.33;;;5.80;;
14247;SDS011;7208;49.826;6.004;2022-10-16T07:20:17;6.13;;;5.53;;
14247;SDS011;7208;49.826;6.004;2022-10-16T07:22:43;5.17;;;4.80;;
14247;SDS011;7208;49.826;6.004;2022-10-16T07:25:09;5.60;;;5.20;;
14247;SDS011;7208;49.826;6.004;2022-10-16T07:27:35;5.43;;;4.67;;
14247;SDS011;7208;49.826;6.004;2022-10-16T07:30:01;5.30;;;4.37;;
14247;SDS011;7208;49.826;6.004;2022-10-16T07:32:27;5.80;;;5.20;;
14247;SDS011;7208;49.826;6.004;2022-10-16T07:34:53;5.73;;;5.17;;
14247;SDS011;7208;49.826;6.004;2022-10-16T07:37:20;7.03;;;4.67;;
14247;SDS011;7208;49.826;6.004;2022-10-16T07:39:46;4.97;;;4.57;;
14247;SDS011;7208;49.826;6.004;2022-10-16T07:42:12;5.20;;;4.77;;
14247;SDS011;7208;49.826;6.004;2022-10-16T07:44:37;4.73;;;4.37;;
14247;SDS011;7208;49.826;6.004;2022-10-16T07:47:03;7.20;;;4.97;;
14247;SDS011;7208;49.826;6.004;2022-10-16T07:49:29;5.93;;;5.33;;
14247;SDS011;7208;49.826;6.004;2022-10-16T07:51:54;5.67;;;5.17;;
14247;SDS011;7208;49.826;6.004;2022-10-16T07:54:20;4.60;;;4.20;;
14247;SDS011;7208;49.826;6.004;2022-10-16T07:56:46;5.40;;;4.90;;
14247;SDS011;7208;49.826;6.004;2022-10-16T07:59:11;5.00;;;4.50;;
14247;SDS011;7208;49.826;6.004;2022-10-16T08:01:37;4.83;;;4.33;;
14247;SDS011;7208;49.826;6.004;2022-10-16T08:04:03;5.60;;;4.57;;
14247;SDS011;7208;49.826;6.004;2022-10-16T08:06:28;5.37;;;4.90;;
14247;SDS011;7208;49.826;6.004;2022-10-16T08:08:55;5.43;;;4.53;;
14247;SDS011;7208;49.826;6.004;2022-10-16T08:11:21;7.83;;;7.33;;
14247;SDS011;7208;49.826;6.004;2022-10-16T08:13:47;9.13;;;8.43;;
14247;SDS011;7208;49.826;6.004;2022-10-16T08:16:13;5.20;;;4.80;;
14247;SDS011;7208;49.826;6.004;2022-10-16T08:18:39;4.83;;;4.50;;
14247;SDS011;7208;49.826;6.004;2022-10-16T08:21:06;5.60;;;5.20;;
14247;SDS011;7208;49.826;6.004;2022-10-16T08:23:36;5.60;;;4.80;;
14247;SDS011;7208;49.826;6.004;2022-10-16T08:26:03;4.13;;;3.83;;
14247;SDS011;7208;49.826;6.004;2022-10-16T08:28:31;3.80;;;3.50;;
14247;SDS011;7208;49.826;6.004;2022-10-16T08:31:04;4.97;;;4.20;;
14247;SDS011;7208;49.826;6.004;2022-10-16T08:33:30;3.50;;;3.30;;
14247;SDS011;7208;49.826;6.004;2022-10-16T08:35:56;3.47;;;3.17;;
14247;SDS011;7208;49.826;6.004;2022-10-16T08:38:21;3.30;;;3.10;;
14247;SDS011;7208;49.826;6.004;2022-10-16T08:40:47;6.20;;;3.80;;
14247;SDS011;7208;49.826;6.004;2022-10-16T08:46:02;4.07;;;3.77;;
14247;SDS011;7208;49.826;6.004;2022-10-16T08:48:51;3.57;;;3.27;;
14247;SDS011;7208;49.826;6.004;2022-10-16T08:51:27;3.73;;;2.80;;
14247;SDS011;7208;49.826;6.004;2022-10-16T08:54:03;2.90;;;2.70;;
14247;SDS011;7208;49.826;6.004;2022-10-16T08:56:40;2.60;;;2.40;;
14247;SDS011;7208;49.826;6.004;2022-10-16T08:59:06;2.40;;;1.90;;
14247;SDS011;7208;49.826;6.004;2022-10-16T09:01:40;2.73;;;2.53;;
14247;SDS011;7208;49.826;6.004;2022-10-16T09:07:16;2.30;;;2.10;;
14247;SDS011;7208;49.826;6.004;2022-10-16T09:10:04;1.63;;;1.53;;
14247;SDS011;7208;49.826;6.004;2022-10-16T09:12:40;1.50;;;1.40;;
14247;SDS011;7208;49.826;6.004;2022-10-16T09:15:35;1.50;;;1.20;;
14247;SDS011;7208;49.826;6.004;2022-10-16T09:20:59;1.87;;;1.30;;
14247;SDS011;7208;49.826;6.004;2022-10-16T09:23:36;2.10;;;1.17;;
14247;SDS011;7208;49.826;6.004;2022-10-16T09:26:02;1.13;;;0.87;;
14247;SDS011;7208;49.826;6.004;2022-10-16T09:28:30;1.33;;;0.73;;
14247;SDS011;7208;49.826;6.004;2022-10-16T09:30:55;1.10;;;0.90;;
14247;SDS011;7208;49.826;6.004;2022-10-16T09:33:23;1.27;;;1.00;;
14247;SDS011;7208;49.826;6.004;2022-10-16T09:35:54;1.37;;;1.07;;
14247;SDS011;7208;49.826;6.004;2022-10-16T09:38:22;1.63;;;1.20;;
14247;SDS011;7208;49.826;6.004;2022-10-16T09:40:53;0.80;;;0.80;;
14247;SDS011;7208;49.826;6.004;2022-10-16T09:45:55;1.07;;;1.07;;
14247;SDS011;7208;49.826;6.004;2022-10-16T09:48:34;1.70;;;1.03;;
14247;SDS011;7208;49.826;6.004;2022-10-16T09:51:19;0.80;;;0.80;;
14247;SDS011;7208;49.826;6.004;2022-10-16T09:53:54;1.23;;;0.80;;
14247;SDS011;7208;49.826;6.004;2022-10-16T09:56:22;1.73;;;1.47;;
14247;SDS011;7208;49.826;6.004;2022-10-16T09:58:53;1.53;;;0.80;;
14247;SDS011;7208;49.826;6.004;2022-10-16T10:01:29;0.80;;;0.70;;
14247;SDS011;7208;49.826;6.004;2022-10-16T10:04:06;1.10;;;0.73;;
14247;SDS011;7208;49.826;6.004;2022-10-16T10:12:03;0.60;;;0.60;;
14247;SDS011;7208;49.826;6.004;2022-10-16T10:14:31;1.20;;;0.70;;
14247;SDS011;7208;49.826;6.004;2022-10-16T10:17:12;1.33;;;0.80;;
14247;SDS011;7208;49.826;6.004;2022-10-16T10:22:13;1.03;;;0.50;;
14247;SDS011;7208;49.826;6.004;2022-10-16T10:25:11;0.83;;;0.80;;
14247;SDS011;7208;49.826;6.004;2022-10-16T10:30:29;0.60;;;0.60;;
14247;SDS011;7208;49.826;6.004;2022-10-16T10:38:52;0.80;;;0.80;;
14247;SDS011;7208;49.826;6.004;2022-10-16T10:46:48;0.80;;;0.80;;
14247;SDS011;7208;49.826;6.004;2022-10-16T11:01:09;0.60;;;0.60;;
14247;SDS011;7208;49.826;6.004;2022-10-16T11:06:28;0.60;;;0.60;;
14247;SDS011;7208;49.826;6.004;2022-10-16T11:11:35;0.80;;;0.80;;
14247;SDS011;7208;49.826;6.004;2022-10-16T11:14:06;0.60;;;0.60;;
14247;SDS011;7208;49.826;6.004;2022-10-16T11:16:58;0.60;;;0.60;;
14247;SDS011;7208;49.826;6.004;2022-10-16T11:28:24;0.70;;;0.67;;
14247;SDS011;7208;49.826;6.004;2022-10-16T11:30:52;0.70;;;0.70;;
14247;SDS011;7208;49.826;6.004;2022-10-16T11:33:51;0.70;;;0.70;;
14247;SDS011;7208;49.826;6.004;2022-10-16T11:36:31;2.50;;;0.70;;
14247;SDS011;7208;49.826;6.004;2022-10-16T11:41:39;0.70;;;0.70;;
14247;SDS011;7208;49.826;6.004;2022-10-16T11:55:41;0.60;;;0.60;;
14247;SDS011;7208;49.826;6.004;2022-10-16T12:00:45;0.60;;;0.40;;
14247;SDS011;7208;49.826;6.004;2022-10-16T12:09:05;0.40;;;0.40;;
14247;SDS011;7208;49.826;6.004;2022-10-16T12:11:40;1.17;;;0.40;;
14247;SDS011;7208;49.826;6.004;2022-10-16T12:14:07;1.13;;;0.50;;
14247;SDS011;7208;49.826;6.004;2022-10-16T12:19:19;0.30;;;0.30;;
14247;SDS011;7208;49.826;6.004;2022-10-16T12:21:46;0.70;;;0.40;;
14247;SDS011;7208;49.826;6.004;2022-10-16T12:26:56;1.47;;;0.40;;
14247;SDS011;7208;49.826;6.004;2022-10-16T12:31:50;2.93;;;0.40;;
14247;SDS011;7208;49.826;6.004;2022-10-16T12:34:25;0.93;;;0.40;;
14247;SDS011;7208;49.826;6.004;2022-10-16T12:36:54;0.37;;;0.37;;
14247;SDS011;7208;49.826;6.004;2022-10-16T12:39:22;0.97;;;0.50;;
14247;SDS011;7208;49.826;6.004;2022-10-16T12:41:59;0.43;;;0.40;;
14247;SDS011;7208;49.826;6.004;2022-10-16T12:44:31;0.37;;;0.37;;
14247;SDS011;7208;49.826;6.004;2022-10-16T12:46:58;0.60;;;0.60;;
14247;SDS011;7208;49.826;6.004;2022-10-16T12:52:03;1.63;;;0.90;;
14247;SDS011;7208;49.826;6.004;2022-10-16T13:19:38;2.77;;;2.57;;
14247;SDS011;7208;49.826;6.004;2022-10-16T13:28:07;3.30;;;2.77;;
14247;SDS011;7208;49.826;6.004;2022-10-16T13:30:45;2.93;;;2.73;;
14247;SDS011;7208;49.826;6.004;2022-10-16T13:33:19;3.03;;;2.83;;
14247;SDS011;7208;49.826;6.004;2022-10-16T13:35:52;2.70;;;2.50;;
14247;SDS011;7208;49.826;6.004;2022-10-16T13:38:21;3.17;;;2.83;;
14247;SDS011;7208;49.826;6.004;2022-10-16T13:43:29;2.60;;;2.40;;
14247;SDS011;7208;49.826;6.004;2022-10-16T13:46:04;3.53;;;2.70;;
14247;SDS011;7208;49.826;6.004;2022-10-16T13:48:32;2.70;;;2.50;;
14247;SDS011;7208;49.826;6.004;2022-10-16T13:51:03;2.87;;;2.60;;
14247;SDS011;7208;49.826;6.004;2022-10-16T13:53:31;3.07;;;2.80;;
14247;SDS011;7208;49.826;6.004;2022-10-16T13:55:58;2.77;;;2.57;;
14247;SDS011;7208;49.826;6.004;2022-10-16T13:58:25;2.43;;;2.33;;
14247;SDS011;7208;49.826;6.004;2022-10-16T14:01:04;3.47;;;3.17;;
14247;SDS011;7208;49.826;6.004;2022-10-16T14:03:37;3.97;;;3.27;;
14247;SDS011;7208;49.826;6.004;2022-10-16T14:06:03;3.17;;;2.97;;
14247;SDS011;7208;49.826;6.004;2022-10-16T14:08:33;3.50;;;3.20;;
14247;SDS011;7208;49.826;6.004;2022-10-16T14:10:59;3.47;;;3.17;;
14247;SDS011;7208;49.826;6.004;2022-10-16T14:13:30;3.70;;;3.40;;
14247;SDS011;7208;49.826;6.004;2022-10-16T14:16:04;3.33;;;3.13;;
14247;SDS011;7208;49.826;6.004;2022-10-16T14:18:32;5.00;;;3.30;;
14247;SDS011;7208;49.826;6.004;2022-10-16T14:21:03;3.53;;;3.23;;
14247;SDS011;7208;49.826;6.004;2022-10-16T14:23:31;3.53;;;3.23;;
14247;SDS011;7208;49.826;6.004;2022-10-16T14:26:05;3.43;;;3.13;;
14247;SDS011;7208;49.826;6.004;2022-10-16T14:28:42;3.97;;;3.00;;
14247;SDS011;7208;49.826;6.004;2022-10-16T14:33:57;3.27;;;2.83;;
14247;SDS011;7208;49.826;6.004;2022-10-16T14:36:24;3.17;;;2.97;;
14247;SDS011;7208;49.826;6.004;2022-10-16T14:39:02;5.03;;;2.77;;
14247;SDS011;7208;49.826;6.004;2022-10-16T14:41:30;3.77;;;2.97;;
14247;SDS011;7208;49.826;6.004;2022-10-16T14:44:09;3.37;;;2.63;;
14247;SDS011;7208;49.826;6.004;2022-10-16T14:46:37;3.10;;;2.87;;
14247;SDS011;7208;49.826;6.004;2022-10-16T14:51:33;4.07;;;3.10;;
14247;SDS011;7208;49.826;6.004;2022-10-16T14:53:59;3.63;;;3.30;;
14247;SDS011;7208;49.826;6.004;2022-10-16T14:56:29;5.90;;;3.97;;
14247;SDS011;7208;49.826;6.004;2022-10-16T14:58:57;3.93;;;3.70;;
14247;SDS011;7208;49.826;6.004;2022-10-16T15:01:23;4.10;;;3.70;;
14247;SDS011;7208;49.826;6.004;2022-10-16T15:03:49;4.77;;;4.23;;
14247;SDS011;7208;49.826;6.004;2022-10-16T15:06:17;5.23;;;4.57;;
14247;SDS011;7208;49.826;6.004;2022-10-16T15:08:43;6.63;;;6.13;;
14247;SDS011;7208;49.826;6.004;2022-10-16T15:11:12;6.27;;;5.67;;
14247;SDS011;7208;49.826;6.004;2022-10-16T15:13:40;6.07;;;5.60;;
14247;SDS011;7208;49.826;6.004;2022-10-16T15:16:13;5.07;;;4.67;;
14247;SDS011;7208;49.826;6.004;2022-10-16T15:18:40;4.87;;;4.23;;
14247;SDS011;7208;49.826;6.004;2022-10-16T15:21:05;4.90;;;4.53;;
14247;SDS011;7208;49.826;6.004;2022-10-16T15:23:31;4.50;;;4.10;;
14247;SDS011;7208;49.826;6.004;2022-10-16T15:25:57;3.90;;;3.60;;
14247;SDS011;7208;49.826;6.004;2022-10-16T15:28:23;4.40;;;4.10;;
14247;SDS011;7208;49.826;6.004;2022-10-16T15:30:51;4.60;;;4.30;;
14247;SDS011;7208;49.826;6.004;2022-10-16T15:33:22;4.37;;;3.80;;
14247;SDS011;7208;49.826;6.004;2022-10-16T15:35:52;4.40;;;4.10;;
14247;SDS011;7208;49.826;6.004;2022-10-16T15:38:18;4.17;;;3.83;;
14247;SDS011;7208;49.826;6.004;2022-10-16T15:40:46;4.73;;;4.43;;
14247;SDS011;7208;49.826;6.004;2022-10-16T15:43:13;5.10;;;4.70;;
14247;SDS011;7208;49.826;6.004;2022-10-16T15:45:39;4.90;;;4.10;;
14247;SDS011;7208;49.826;6.004;2022-10-16T15:48:05;4.50;;;4.10;;
14247;SDS011;7208;49.826;6.004;2022-10-16T15:50:31;5.40;;;4.30;;
14247;SDS011;7208;49.826;6.004;2022-10-16T15:52:57;5.03;;;4.63;;
14247;SDS011;7208;49.826;6.004;2022-10-16T15:55:23;4.87;;;4.47;;
14247;SDS011;7208;49.826;6.004;2022-10-16T15:57:49;5.27;;;4.87;;
14247;SDS011;7208;49.826;6.004;2022-10-16T16:00:16;5.30;;;4.90;;
14247;SDS011;7208;49.826;6.004;2022-10-16T16:02:43;5.07;;;4.60;;
14247;SDS011;7208;49.826;6.004;2022-10-16T16:05:14;5.03;;;4.63;;
14247;SDS011;7208;49.826;6.004;2022-10-16T16:07:40;6.10;;;5.60;;
14247;SDS011;7208;49.826;6.004;2022-10-16T16:10:07;5.77;;;5.17;;
14247;SDS011;7208;49.826;6.004;2022-10-16T16:12:35;5.63;;;5.17;;
14247;SDS011;7208;49.826;6.004;2022-10-16T16:15:01;4.87;;;4.47;;
14247;SDS011;7208;49.826;6.004;2022-10-16T16:17:28;5.13;;;4.73;;
14247;SDS011;7208;49.826;6.004;2022-10-16T16:19:55;6.47;;;4.67;;
14247;SDS011;7208;49.826;6.004;2022-10-16T16:22:21;6.97;;;5.00;;
14247;SDS011;7208;49.826;6.004;2022-10-16T16:24:46;5.07;;;4.60;;
14247;SDS011;7208;49.826;6.004;2022-10-16T16:27:12;5.83;;;4.60;;
14247;SDS011;7208;49.826;6.004;2022-10-16T16:29:38;5.53;;;5.03;;
14247;SDS011;7208;49.826;6.004;2022-10-16T16:32:04;5.57;;;5.20;;
14247;SDS011;7208;49.826;6.004;2022-10-16T16:34:30;5.50;;;5.00;;
14247;SDS011;7208;49.826;6.004;2022-10-16T16:36:55;6.40;;;5.80;;
14247;SDS011;7208;49.826;6.004;2022-10-16T16:39:22;5.77;;;5.37;;
14247;SDS011;7208;49.826;6.004;2022-10-16T16:41:47;8.47;;;5.67;;
14247;SDS011;7208;49.826;6.004;2022-10-16T16:44:14;6.20;;;5.70;;
14247;SDS011;7208;49.826;6.004;2022-10-16T16:46:41;7.70;;;5.80;;
14247;SDS011;7208;49.826;6.004;2022-10-16T16:49:08;6.80;;;6.30;;
14247;SDS011;7208;49.826;6.004;2022-10-16T16:51:37;7.63;;;6.63;;
14247;SDS011;7208;49.826;6.004;2022-10-16T16:54:03;7.07;;;6.27;;
14247;SDS011;7208;49.826;6.004;2022-10-16T16:56:29;7.30;;;6.60;;
14247;SDS011;7208;49.826;6.004;2022-10-16T16:58:56;8.73;;;6.20;;
14247;SDS011;7208;49.826;6.004;2022-10-16T17:01:23;7.50;;;6.87;;
14247;SDS011;7208;49.826;6.004;2022-10-16T17:03:51;7.43;;;6.67;;
14247;SDS011;7208;49.826;6.004;2022-10-16T17:06:22;8.53;;;6.07;;
14247;SDS011;7208;49.826;6.004;2022-10-16T17:08:50;7.33;;;6.77;;
14247;SDS011;7208;49.826;6.004;2022-10-16T17:11:17;8.43;;;7.63;;
14247;SDS011;7208;49.826;6.004;2022-10-16T17:13:47;7.97;;;7.03;;
14247;SDS011;7208;49.826;6.004;2022-10-16T17:16:14;10.17;;;9.07;;
14247;SDS011;7208;49.826;6.004;2022-10-16T17:18:40;9.97;;;7.60;;
14247;SDS011;7208;49.826;6.004;2022-10-16T17:21:07;8.13;;;7.40;;
14247;SDS011;7208;49.826;6.004;2022-10-16T17:23:34;8.03;;;7.33;;
14247;SDS011;7208;49.826;6.004;2022-10-16T17:26:11;11.10;;;7.87;;
14247;SDS011;7208;49.826;6.004;2022-10-16T17:28:38;8.40;;;7.70;;
14247;SDS011;7208;49.826;6.004;2022-10-16T17:31:15;9.87;;;9.03;;
14247;SDS011;7208;49.826;6.004;2022-10-16T17:33:43;9.30;;;8.40;;
14247;SDS011;7208;49.826;6.004;2022-10-16T17:36:09;8.77;;;8.07;;
14247;SDS011;7208;49.826;6.004;2022-10-16T17:38:38;9.50;;;8.40;;
14247;SDS011;7208;49.826;6.004;2022-10-16T17:41:11;10.43;;;8.93;;
14247;SDS011;7208;49.826;6.004;2022-10-16T17:43:41;10.80;;;9.80;;
14247;SDS011;7208;49.826;6.004;2022-10-16T17:46:07;9.80;;;8.90;;